sensor_id;sensor_type;location;lat;lon;timestamp;P1;durP1;ratioP1;P2;durP2;ratioP2
787;SDS011;16074;42.708;23.312;2024-03-06T00:00:56;20.47;;;9.63;;
787;SDS011;16074;42.708;23.312;2024-03-06T00:03:22;22.13;;;9.63;;
787;SDS011;16074;42.708;23.312;2024-03-06T00:05:47;20.77;;;9.20;;
787;SDS011;16074;42.708;23.312;2024-03-06T00:08:14;18.58;;;9.30;;
787;SDS011;16074;42.708;23.312;2024-03-06T00:10:40;15.95;;;9.43;;
787;SDS011;16074;42.708;23.312;2024-03-06T00:13:05;15.98;;;9.07;;
787;SDS011;16074;42.708;23.312;2024-03-06T00:15:30;19.03;;;8.97;;
787;SDS011;16074;42.708;23.312;2024-03-06T00:17:56;18.40;;;9.77;;
787;SDS011;16074;42.708;23.312;2024-03-06T00:20:23;20.75;;;9.13;;
787;SDS011;16074;42.708;23.312;2024-03-06T00:22:48;21.77;;;10.30;;
787;SDS011;16074;42.708;23.312;2024-03-06T00:25:14;18.13;;;9.27;;
787;SDS011;16074;42.708;23.312;2024-03-06T00:27:39;20.47;;;9.93;;
787;SDS011;16074;42.708;23.312;2024-03-06T00:30:04;22.37;;;11.00;;
787;SDS011;16074;42.708;23.312;2024-03-06T00:32:30;23.27;;;10.45;;
787;SDS011;16074;42.708;23.312;2024-03-06T00:34:55;19.13;;;9.23;;
787;SDS011;16074;42.708;23.312;2024-03-06T00:37:20;23.48;;;10.60;;
787;SDS011;16074;42.708;23.312;2024-03-06T00:39:46;18.47;;;10.03;;
787;SDS011;16074;42.708;23.312;2024-03-06T00:42:12;18.03;;;10.03;;
787;SDS011;16074;42.708;23.312;2024-03-06T00:44:38;18.98;;;10.45;;
787;SDS011;16074;42.708;23.312;2024-03-06T00:47:04;19.57;;;9.70;;
787;SDS011;16074;42.708;23.312;2024-03-06T00:49:29;19.40;;;10.10;;
787;SDS011;16074;42.708;23.312;2024-03-06T00:51:54;22.13;;;9.90;;
787;SDS011;16074;42.708;23.312;2024-03-06T00:54:19;22.00;;;10.57;;
787;SDS011;16074;42.708;23.312;2024-03-06T00:56:45;19.30;;;10.43;;
787;SDS011;16074;42.708;23.312;2024-03-06T00:59:10;20.33;;;9.90;;
787;SDS011;16074;42.708;23.312;2024-03-06T01:01:35;28.17;;;11.57;;
787;SDS011;16074;42.708;23.312;2024-03-06T01:04:01;18.35;;;9.07;;
787;SDS011;16074;42.708;23.312;2024-03-06T01:06:27;18.92;;;9.55;;
787;SDS011;16074;42.708;23.312;2024-03-06T01:08:52;22.65;;;11.90;;
787;SDS011;16074;42.708;23.312;2024-03-06T01:11:18;23.60;;;12.32;;
787;SDS011;16074;42.708;23.312;2024-03-06T01:13:43;21.93;;;10.77;;
787;SDS011;16074;42.708;23.312;2024-03-06T01:16:08;25.27;;;12.67;;
787;SDS011;16074;42.708;23.312;2024-03-06T01:18:33;24.80;;;11.90;;
787;SDS011;16074;42.708;23.312;2024-03-06T01:20:59;23.80;;;10.68;;
787;SDS011;16074;42.708;23.312;2024-03-06T01:23:24;24.77;;;11.00;;
787;SDS011;16074;42.708;23.312;2024-03-06T01:25:49;20.60;;;10.83;;
787;SDS011;16074;42.708;23.312;2024-03-06T01:28:15;22.40;;;10.40;;
787;SDS011;16074;42.708;23.312;2024-03-06T01:30:40;21.77;;;10.00;;
787;SDS011;16074;42.708;23.312;2024-03-06T01:33:05;19.80;;;9.57;;
787;SDS011;16074;42.708;23.312;2024-03-06T01:35:31;16.63;;;9.02;;
787;SDS011;16074;42.708;23.312;2024-03-06T01:37:56;19.50;;;10.07;;
787;SDS011;16074;42.708;23.312;2024-03-06T01:40:21;21.17;;;10.07;;
787;SDS011;16074;42.708;23.312;2024-03-06T01:42:47;20.10;;;10.43;;
787;SDS011;16074;42.708;23.312;2024-03-06T01:45:14;25.70;;;10.90;;
787;SDS011;16074;42.708;23.312;2024-03-06T01:47:39;22.85;;;10.32;;
787;SDS011;16074;42.708;23.312;2024-03-06T01:50:04;18.53;;;9.67;;
787;SDS011;16074;42.708;23.312;2024-03-06T01:52:33;22.42;;;10.25;;
787;SDS011;16074;42.708;23.312;2024-03-06T01:55:00;24.55;;;10.40;;
787;SDS011;16074;42.708;23.312;2024-03-06T01:57:25;20.85;;;10.25;;
787;SDS011;16074;42.708;23.312;2024-03-06T01:59:51;21.80;;;9.82;;
787;SDS011;16074;42.708;23.312;2024-03-06T02:02:16;19.47;;;9.60;;
787;SDS011;16074;42.708;23.312;2024-03-06T02:04:41;20.53;;;9.87;;
787;SDS011;16074;42.708;23.312;2024-03-06T02:07:10;19.85;;;10.05;;
787;SDS011;16074;42.708;23.312;2024-03-06T02:09:36;20.45;;;10.25;;
787;SDS011;16074;42.708;23.312;2024-03-06T02:12:01;18.85;;;9.02;;
787;SDS011;16074;42.708;23.312;2024-03-06T02:14:26;21.87;;;9.57;;
787;SDS011;16074;42.708;23.312;2024-03-06T02:16:52;22.02;;;9.63;;
787;SDS011;16074;42.708;23.312;2024-03-06T02:19:17;26.60;;;10.23;;
787;SDS011;16074;42.708;23.312;2024-03-06T02:21:43;24.43;;;10.83;;
787;SDS011;16074;42.708;23.312;2024-03-06T02:24:08;19.67;;;10.03;;
787;SDS011;16074;42.708;23.312;2024-03-06T02:26:36;21.90;;;10.50;;
787;SDS011;16074;42.708;23.312;2024-03-06T02:29:02;22.33;;;10.37;;
787;SDS011;16074;42.708;23.312;2024-03-06T02:31:27;23.50;;;10.70;;
787;SDS011;16074;42.708;23.312;2024-03-06T02:33:54;23.45;;;10.55;;
787;SDS011;16074;42.708;23.312;2024-03-06T02:36:19;24.63;;;11.73;;
787;SDS011;16074;42.708;23.312;2024-03-06T02:38:45;25.53;;;11.07;;
787;SDS011;16074;42.708;23.312;2024-03-06T02:41:10;20.90;;;11.45;;
787;SDS011;16074;42.708;23.312;2024-03-06T02:43:36;26.60;;;11.20;;
787;SDS011;16074;42.708;23.312;2024-03-06T02:46:01;24.92;;;10.95;;
787;SDS011;16074;42.708;23.312;2024-03-06T02:48:27;26.20;;;12.40;;
787;SDS011;16074;42.708;23.312;2024-03-06T02:50:52;20.40;;;10.77;;
787;SDS011;16074;42.708;23.312;2024-03-06T02:53:17;25.50;;;11.13;;
787;SDS011;16074;42.708;23.312;2024-03-06T02:55:42;20.23;;;9.20;;
787;SDS011;16074;42.708;23.312;2024-03-06T02:58:08;18.53;;;10.20;;
787;SDS011;16074;42.708;23.312;2024-03-06T03:00:33;21.77;;;10.13;;
787;SDS011;16074;42.708;23.312;2024-03-06T03:02:58;20.43;;;10.37;;
787;SDS011;16074;42.708;23.312;2024-03-06T03:05:24;19.77;;;9.48;;
787;SDS011;16074;42.708;23.312;2024-03-06T03:07:49;23.00;;;9.68;;
787;SDS011;16074;42.708;23.312;2024-03-06T03:10:15;18.80;;;9.52;;
787;SDS011;16074;42.708;23.312;2024-03-06T03:12:40;26.33;;;10.85;;
787;SDS011;16074;42.708;23.312;2024-03-06T03:15:05;24.42;;;10.00;;
787;SDS011;16074;42.708;23.312;2024-03-06T03:17:31;21.55;;;9.65;;
787;SDS011;16074;42.708;23.312;2024-03-06T03:19:57;23.05;;;10.57;;
787;SDS011;16074;42.708;23.312;2024-03-06T03:22:23;20.70;;;9.73;;
787;SDS011;16074;42.708;23.312;2024-03-06T03:24:48;23.60;;;9.83;;
787;SDS011;16074;42.708;23.312;2024-03-06T03:27:14;21.23;;;9.25;;
787;SDS011;16074;42.708;23.312;2024-03-06T03:29:39;19.47;;;9.33;;
787;SDS011;16074;42.708;23.312;2024-03-06T03:32:05;25.60;;;11.07;;
787;SDS011;16074;42.708;23.312;2024-03-06T03:34:30;22.70;;;10.60;;
787;SDS011;16074;42.708;23.312;2024-03-06T03:36:55;21.73;;;9.90;;
787;SDS011;16074;42.708;23.312;2024-03-06T03:39:21;22.88;;;10.27;;
787;SDS011;16074;42.708;23.312;2024-03-06T03:41:49;24.00;;;10.77;;
787;SDS011;16074;42.708;23.312;2024-03-06T03:44:15;24.55;;;10.93;;
787;SDS011;16074;42.708;23.312;2024-03-06T03:46:41;22.42;;;10.38;;
787;SDS011;16074;42.708;23.312;2024-03-06T03:49:06;19.40;;;10.05;;
787;SDS011;16074;42.708;23.312;2024-03-06T03:51:32;21.88;;;10.60;;
787;SDS011;16074;42.708;23.312;2024-03-06T03:53:57;25.87;;;11.30;;
787;SDS011;16074;42.708;23.312;2024-03-06T03:56:22;20.17;;;10.57;;
787;SDS011;16074;42.708;23.312;2024-03-06T03:58:48;22.90;;;10.87;;
787;SDS011;16074;42.708;23.312;2024-03-06T04:01:13;21.37;;;10.33;;
787;SDS011;16074;42.708;23.312;2024-03-06T04:03:38;23.27;;;10.17;;
787;SDS011;16074;42.708;23.312;2024-03-06T04:06:03;21.93;;;9.87;;
787;SDS011;16074;42.708;23.312;2024-03-06T04:08:29;19.00;;;10.02;;
787;SDS011;16074;42.708;23.312;2024-03-06T04:10:54;22.93;;;10.97;;
787;SDS011;16074;42.708;23.312;2024-03-06T04:13:19;15.37;;;9.17;;
787;SDS011;16074;42.708;23.312;2024-03-06T04:15:45;18.42;;;9.00;;
787;SDS011;16074;42.708;23.312;2024-03-06T04:18:11;19.25;;;10.80;;
787;SDS011;16074;42.708;23.312;2024-03-06T04:20:36;21.02;;;10.48;;
787;SDS011;16074;42.708;23.312;2024-03-06T04:23:01;20.47;;;8.80;;
787;SDS011;16074;42.708;23.312;2024-03-06T04:25:27;25.23;;;10.30;;
787;SDS011;16074;42.708;23.312;2024-03-06T04:27:52;24.63;;;11.20;;
787;SDS011;16074;42.708;23.312;2024-03-06T04:30:17;22.43;;;10.63;;
787;SDS011;16074;42.708;23.312;2024-03-06T04:32:43;26.55;;;11.20;;
787;SDS011;16074;42.708;23.312;2024-03-06T04:35:09;27.00;;;12.75;;
787;SDS011;16074;42.708;23.312;2024-03-06T04:37:35;20.75;;;9.63;;
787;SDS011;16074;42.708;23.312;2024-03-06T04:40:00;19.73;;;10.45;;
787;SDS011;16074;42.708;23.312;2024-03-06T04:42:25;28.27;;;11.83;;
787;SDS011;16074;42.708;23.312;2024-03-06T04:44:50;20.93;;;10.63;;
787;SDS011;16074;42.708;23.312;2024-03-06T04:47:16;21.07;;;10.30;;
787;SDS011;16074;42.708;23.312;2024-03-06T04:49:41;19.63;;;10.02;;
787;SDS011;16074;42.708;23.312;2024-03-06T04:52:07;24.33;;;11.48;;
787;SDS011;16074;42.708;23.312;2024-03-06T04:54:34;22.50;;;9.82;;
787;SDS011;16074;42.708;23.312;2024-03-06T04:56:59;24.00;;;10.73;;
787;SDS011;16074;42.708;23.312;2024-03-06T04:59:24;23.23;;;10.17;;
787;SDS011;16074;42.708;23.312;2024-03-06T05:01:51;22.42;;;10.77;;
787;SDS011;16074;42.708;23.312;2024-03-06T05:04:16;16.85;;;9.68;;
787;SDS011;16074;42.708;23.312;2024-03-06T05:06:42;24.40;;;11.00;;
787;SDS011;16074;42.708;23.312;2024-03-06T05:09:07;18.93;;;9.70;;
787;SDS011;16074;42.708;23.312;2024-03-06T05:11:32;23.00;;;10.10;;
787;SDS011;16074;42.708;23.312;2024-03-06T05:13:59;25.60;;;11.27;;
787;SDS011;16074;42.708;23.312;2024-03-06T05:16:24;20.58;;;9.57;;
787;SDS011;16074;42.708;23.312;2024-03-06T05:18:49;21.27;;;9.40;;
787;SDS011;16074;42.708;23.312;2024-03-06T05:21:14;20.92;;;10.45;;
787;SDS011;16074;42.708;23.312;2024-03-06T05:23:40;22.17;;;10.23;;
787;SDS011;16074;42.708;23.312;2024-03-06T05:26:05;16.20;;;9.57;;
787;SDS011;16074;42.708;23.312;2024-03-06T05:28:30;17.60;;;8.90;;
787;SDS011;16074;42.708;23.312;2024-03-06T05:30:56;20.40;;;9.50;;
787;SDS011;16074;42.708;23.312;2024-03-06T05:33:21;21.80;;;10.15;;
787;SDS011;16074;42.708;23.312;2024-03-06T05:35:47;19.37;;;9.50;;
787;SDS011;16074;42.708;23.312;2024-03-06T05:38:12;18.83;;;8.70;;
787;SDS011;16074;42.708;23.312;2024-03-06T05:40:37;19.07;;;9.90;;
787;SDS011;16074;42.708;23.312;2024-03-06T05:43:05;22.15;;;9.98;;
787;SDS011;16074;42.708;23.312;2024-03-06T05:45:31;20.10;;;10.53;;
787;SDS011;16074;42.708;23.312;2024-03-06T05:47:56;23.10;;;9.87;;
787;SDS011;16074;42.708;23.312;2024-03-06T05:50:21;20.90;;;9.77;;
787;SDS011;16074;42.708;23.312;2024-03-06T05:52:47;22.17;;;9.88;;
787;SDS011;16074;42.708;23.312;2024-03-06T05:55:12;28.53;;;11.53;;
787;SDS011;16074;42.708;23.312;2024-03-06T05:57:38;25.10;;;11.67;;
787;SDS011;16074;42.708;23.312;2024-03-06T06:00:03;21.37;;;9.83;;
787;SDS011;16074;42.708;23.312;2024-03-06T06:02:30;20.60;;;10.77;;
787;SDS011;16074;42.708;23.312;2024-03-06T06:04:56;22.02;;;10.18;;
787;SDS011;16074;42.708;23.312;2024-03-06T06:07:21;29.73;;;11.77;;
787;SDS011;16074;42.708;23.312;2024-03-06T06:09:46;24.17;;;11.67;;
787;SDS011;16074;42.708;23.312;2024-03-06T06:12:11;30.53;;;13.07;;
787;SDS011;16074;42.708;23.312;2024-03-06T06:14:37;33.50;;;14.53;;
787;SDS011;16074;42.708;23.312;2024-03-06T06:17:02;36.37;;;16.03;;
787;SDS011;16074;42.708;23.312;2024-03-06T06:19:28;38.08;;;16.65;;
787;SDS011;16074;42.708;23.312;2024-03-06T06:21:54;39.72;;;17.02;;
787;SDS011;16074;42.708;23.312;2024-03-06T06:24:21;32.28;;;14.60;;
787;SDS011;16074;42.708;23.312;2024-03-06T06:26:47;35.10;;;15.77;;
787;SDS011;16074;42.708;23.312;2024-03-06T06:29:14;39.63;;;15.93;;
787;SDS011;16074;42.708;23.312;2024-03-06T06:31:39;36.45;;;14.30;;
787;SDS011;16074;42.708;23.312;2024-03-06T06:34:05;34.20;;;13.85;;
787;SDS011;16074;42.708;23.312;2024-03-06T06:36:31;32.33;;;13.05;;
787;SDS011;16074;42.708;23.312;2024-03-06T06:38:56;26.63;;;13.27;;
787;SDS011;16074;42.708;23.312;2024-03-06T06:41:22;33.50;;;13.33;;
787;SDS011;16074;42.708;23.312;2024-03-06T06:43:49;25.10;;;11.85;;
787;SDS011;16074;42.708;23.312;2024-03-06T06:46:16;30.08;;;13.27;;
787;SDS011;16074;42.708;23.312;2024-03-06T06:48:43;40.10;;;16.52;;
787;SDS011;16074;42.708;23.312;2024-03-06T06:51:08;38.57;;;16.87;;
787;SDS011;16074;42.708;23.312;2024-03-06T06:53:33;33.13;;;15.70;;
787;SDS011;16074;42.708;23.312;2024-03-06T06:55:59;36.53;;;16.87;;
787;SDS011;16074;42.708;23.312;2024-03-06T06:58:24;35.33;;;15.57;;
787;SDS011;16074;42.708;23.312;2024-03-06T07:00:52;35.25;;;16.17;;
787;SDS011;16074;42.708;23.312;2024-03-06T07:03:17;35.10;;;17.25;;
787;SDS011;16074;42.708;23.312;2024-03-06T07:05:42;35.07;;;17.87;;
787;SDS011;16074;42.708;23.312;2024-03-06T07:08:08;35.10;;;16.88;;
787;SDS011;16074;42.708;23.312;2024-03-06T07:10:33;30.70;;;16.60;;
787;SDS011;16074;42.708;23.312;2024-03-06T07:13:00;31.58;;;14.65;;
787;SDS011;16074;42.708;23.312;2024-03-06T07:15:27;33.83;;;16.00;;
787;SDS011;16074;42.708;23.312;2024-03-06T07:17:52;33.40;;;14.80;;
787;SDS011;16074;42.708;23.312;2024-03-06T07:20:18;39.72;;;18.98;;
787;SDS011;16074;42.708;23.312;2024-03-06T07:22:44;34.50;;;17.02;;
787;SDS011;16074;42.708;23.312;2024-03-06T07:25:10;32.97;;;18.23;;
787;SDS011;16074;42.708;23.312;2024-03-06T07:27:35;35.75;;;18.33;;
787;SDS011;16074;42.708;23.312;2024-03-06T07:30:01;32.43;;;15.90;;
787;SDS011;16074;42.708;23.312;2024-03-06T07:32:26;26.15;;;14.13;;
787;SDS011;16074;42.708;23.312;2024-03-06T07:34:52;26.80;;;13.53;;
787;SDS011;16074;42.708;23.312;2024-03-06T07:37:19;31.20;;;13.00;;
787;SDS011;16074;42.708;23.312;2024-03-06T07:39:44;25.17;;;12.50;;
787;SDS011;16074;42.708;23.312;2024-03-06T07:42:10;26.50;;;11.50;;
787;SDS011;16074;42.708;23.312;2024-03-06T07:44:35;23.57;;;12.07;;
787;SDS011;16074;42.708;23.312;2024-03-06T07:47:01;23.33;;;13.03;;
787;SDS011;16074;42.708;23.312;2024-03-06T07:49:26;22.33;;;11.82;;
787;SDS011;16074;42.708;23.312;2024-03-06T07:51:51;22.57;;;11.47;;
787;SDS011;16074;42.708;23.312;2024-03-06T07:54:17;21.52;;;12.32;;
787;SDS011;16074;42.708;23.312;2024-03-06T07:56:42;23.63;;;11.53;;
787;SDS011;16074;42.708;23.312;2024-03-06T07:59:07;25.00;;;12.20;;
787;SDS011;16074;42.708;23.312;2024-03-06T08:01:33;24.65;;;12.05;;
787;SDS011;16074;42.708;23.312;2024-03-06T08:03:59;26.75;;;12.95;;
787;SDS011;16074;42.708;23.312;2024-03-06T08:06:24;26.83;;;13.87;;
787;SDS011;16074;42.708;23.312;2024-03-06T08:08:50;24.85;;;13.70;;
787;SDS011;16074;42.708;23.312;2024-03-06T08:11:16;30.42;;;14.15;;
787;SDS011;16074;42.708;23.312;2024-03-06T08:13:43;32.22;;;14.57;;
787;SDS011;16074;42.708;23.312;2024-03-06T08:16:08;29.35;;;14.32;;
787;SDS011;16074;42.708;23.312;2024-03-06T08:18:33;24.87;;;12.43;;
787;SDS011;16074;42.708;23.312;2024-03-06T08:20:59;23.73;;;13.90;;
787;SDS011;16074;42.708;23.312;2024-03-06T08:23:25;28.98;;;13.30;;
787;SDS011;16074;42.708;23.312;2024-03-06T08:25:51;25.90;;;13.02;;
787;SDS011;16074;42.708;23.312;2024-03-06T08:28:17;24.60;;;13.35;;
787;SDS011;16074;42.708;23.312;2024-03-06T08:30:43;26.75;;;12.88;;
787;SDS011;16074;42.708;23.312;2024-03-06T08:33:09;25.55;;;14.50;;
787;SDS011;16074;42.708;23.312;2024-03-06T08:35:34;26.63;;;13.40;;
787;SDS011;16074;42.708;23.312;2024-03-06T08:37:59;30.13;;;14.20;;
787;SDS011;16074;42.708;23.312;2024-03-06T08:40:25;24.23;;;13.07;;
787;SDS011;16074;42.708;23.312;2024-03-06T08:42:52;24.92;;;13.73;;
787;SDS011;16074;42.708;23.312;2024-03-06T08:45:17;26.55;;;14.52;;
787;SDS011;16074;42.708;23.312;2024-03-06T08:47:44;26.40;;;13.50;;
787;SDS011;16074;42.708;23.312;2024-03-06T08:50:09;23.52;;;12.27;;
787;SDS011;16074;42.708;23.312;2024-03-06T08:52:35;27.52;;;13.93;;
787;SDS011;16074;42.708;23.312;2024-03-06T08:55:00;25.33;;;13.25;;
787;SDS011;16074;42.708;23.312;2024-03-06T08:57:26;25.08;;;13.23;;
787;SDS011;16074;42.708;23.312;2024-03-06T08:59:56;26.20;;;13.50;;
787;SDS011;16074;42.708;23.312;2024-03-06T09:02:21;20.40;;;11.00;;
787;SDS011;16074;42.708;23.312;2024-03-06T09:04:46;21.67;;;12.43;;
787;SDS011;16074;42.708;23.312;2024-03-06T09:07:12;21.85;;;11.88;;
787;SDS011;16074;42.708;23.312;2024-03-06T09:09:38;22.08;;;12.95;;
787;SDS011;16074;42.708;23.312;2024-03-06T09:12:04;22.60;;;12.07;;
787;SDS011;16074;42.708;23.312;2024-03-06T09:14:31;20.15;;;10.98;;
787;SDS011;16074;42.708;23.312;2024-03-06T09:16:57;20.20;;;11.65;;
787;SDS011;16074;42.708;23.312;2024-03-06T09:19:22;21.50;;;11.47;;
787;SDS011;16074;42.708;23.312;2024-03-06T09:21:48;21.67;;;12.73;;
787;SDS011;16074;42.708;23.312;2024-03-06T09:24:13;19.30;;;12.00;;
787;SDS011;16074;42.708;23.312;2024-03-06T09:26:39;22.07;;;11.57;;
787;SDS011;16074;42.708;23.312;2024-03-06T09:29:05;16.38;;;9.07;;
787;SDS011;16074;42.708;23.312;2024-03-06T09:31:31;18.48;;;10.10;;
787;SDS011;16074;42.708;23.312;2024-03-06T09:33:56;16.73;;;8.80;;
787;SDS011;16074;42.708;23.312;2024-03-06T09:36:23;17.27;;;8.93;;
787;SDS011;16074;42.708;23.312;2024-03-06T09:38:48;17.73;;;9.05;;
787;SDS011;16074;42.708;23.312;2024-03-06T09:41:13;17.50;;;9.10;;
787;SDS011;16074;42.708;23.312;2024-03-06T09:43:38;14.03;;;7.80;;
787;SDS011;16074;42.708;23.312;2024-03-06T09:46:06;14.88;;;8.57;;
787;SDS011;16074;42.708;23.312;2024-03-06T09:48:31;14.48;;;8.77;;
787;SDS011;16074;42.708;23.312;2024-03-06T09:51:00;15.27;;;8.02;;
787;SDS011;16074;42.708;23.312;2024-03-06T09:53:25;14.73;;;7.30;;
787;SDS011;16074;42.708;23.312;2024-03-06T09:55:51;12.55;;;7.22;;
787;SDS011;16074;42.708;23.312;2024-03-06T09:58:17;14.30;;;8.13;;
787;SDS011;16074;42.708;23.312;2024-03-06T10:00:42;12.25;;;6.88;;
787;SDS011;16074;42.708;23.312;2024-03-06T10:03:09;16.65;;;7.95;;
787;SDS011;16074;42.708;23.312;2024-03-06T10:05:34;14.47;;;7.03;;
787;SDS011;16074;42.708;23.312;2024-03-06T10:08:03;12.33;;;7.30;;
787;SDS011;16074;42.708;23.312;2024-03-06T10:10:29;11.85;;;6.55;;
787;SDS011;16074;42.708;23.312;2024-03-06T10:12:54;14.55;;;8.05;;
787;SDS011;16074;42.708;23.312;2024-03-06T10:15:22;13.35;;;7.05;;
787;SDS011;16074;42.708;23.312;2024-03-06T10:17:47;13.73;;;7.47;;
787;SDS011;16074;42.708;23.312;2024-03-06T10:20:20;12.85;;;7.60;;
787;SDS011;16074;42.708;23.312;2024-03-06T10:22:55;13.93;;;6.68;;
787;SDS011;16074;42.708;23.312;2024-03-06T10:25:21;10.80;;;7.18;;
787;SDS011;16074;42.708;23.312;2024-03-06T10:28:07;12.70;;;6.43;;
787;SDS011;16074;42.708;23.312;2024-03-06T10:30:32;12.75;;;7.45;;
787;SDS011;16074;42.708;23.312;2024-03-06T10:32:58;13.48;;;7.90;;
787;SDS011;16074;42.708;23.312;2024-03-06T10:35:24;10.38;;;5.95;;
787;SDS011;16074;42.708;23.312;2024-03-06T10:37:51;9.68;;;5.88;;
787;SDS011;16074;42.708;23.312;2024-03-06T10:40:17;10.85;;;5.72;;
787;SDS011;16074;42.708;23.312;2024-03-06T10:42:43;7.80;;;5.15;;
787;SDS011;16074;42.708;23.312;2024-03-06T10:45:10;7.22;;;5.05;;
787;SDS011;16074;42.708;23.312;2024-03-06T10:47:38;11.43;;;5.78;;
787;SDS011;16074;42.708;23.312;2024-03-06T10:50:05;9.30;;;5.07;;
787;SDS011;16074;42.708;23.312;2024-03-06T10:52:35;11.88;;;5.82;;
787;SDS011;16074;42.708;23.312;2024-03-06T10:55:00;10.75;;;5.30;;
787;SDS011;16074;42.708;23.312;2024-03-06T10:57:27;7.55;;;5.38;;
787;SDS011;16074;42.708;23.312;2024-03-06T10:59:54;10.50;;;5.70;;
787;SDS011;16074;42.708;23.312;2024-03-06T11:02:20;9.55;;;5.20;;
787;SDS011;16074;42.708;23.312;2024-03-06T11:04:48;6.57;;;4.60;;
787;SDS011;16074;42.708;23.312;2024-03-06T11:07:14;8.23;;;5.28;;
787;SDS011;16074;42.708;23.312;2024-03-06T11:09:39;8.03;;;5.40;;
787;SDS011;16074;42.708;23.312;2024-03-06T11:12:05;7.47;;;5.15;;
787;SDS011;16074;42.708;23.312;2024-03-06T11:14:36;8.52;;;5.50;;
787;SDS011;16074;42.708;23.312;2024-03-06T11:17:05;6.30;;;5.00;;
787;SDS011;16074;42.708;23.312;2024-03-06T11:19:33;11.02;;;5.47;;
787;SDS011;16074;42.708;23.312;2024-03-06T11:22:18;12.35;;;5.68;;
787;SDS011;16074;42.708;23.312;2024-03-06T11:24:43;8.97;;;5.47;;
787;SDS011;16074;42.708;23.312;2024-03-06T11:27:08;9.63;;;4.93;;
787;SDS011;16074;42.708;23.312;2024-03-06T11:32:20;8.65;;;5.53;;
787;SDS011;16074;42.708;23.312;2024-03-06T11:34:47;9.35;;;5.38;;
787;SDS011;16074;42.708;23.312;2024-03-06T11:37:13;8.03;;;5.83;;
787;SDS011;16074;42.708;23.312;2024-03-06T11:39:38;9.40;;;6.07;;
787;SDS011;16074;42.708;23.312;2024-03-06T11:42:04;8.10;;;5.15;;
787;SDS011;16074;42.708;23.312;2024-03-06T11:44:33;10.02;;;5.40;;
787;SDS011;16074;42.708;23.312;2024-03-06T11:47:01;9.67;;;5.97;;
787;SDS011;16074;42.708;23.312;2024-03-06T11:49:27;10.07;;;4.72;;
787;SDS011;16074;42.708;23.312;2024-03-06T11:52:12;9.07;;;5.43;;
787;SDS011;16074;42.708;23.312;2024-03-06T11:54:38;8.15;;;4.85;;
787;SDS011;16074;42.708;23.312;2024-03-06T11:57:05;7.50;;;4.60;;
787;SDS011;16074;42.708;23.312;2024-03-06T11:59:35;11.18;;;5.30;;
787;SDS011;16074;42.708;23.312;2024-03-06T12:02:02;8.98;;;4.97;;
787;SDS011;16074;42.708;23.312;2024-03-06T12:04:28;9.13;;;5.68;;
787;SDS011;16074;42.708;23.312;2024-03-06T12:06:56;8.45;;;4.53;;
787;SDS011;16074;42.708;23.312;2024-03-06T12:09:22;9.25;;;5.55;;
787;SDS011;16074;42.708;23.312;2024-03-06T12:11:47;13.27;;;7.57;;
787;SDS011;16074;42.708;23.312;2024-03-06T12:14:17;8.23;;;5.80;;
787;SDS011;16074;42.708;23.312;2024-03-06T12:16:58;10.75;;;5.85;;
787;SDS011;16074;42.708;23.312;2024-03-06T12:19:27;6.93;;;4.93;;
787;SDS011;16074;42.708;23.312;2024-03-06T12:21:55;8.85;;;7.32;;
787;SDS011;16074;42.708;23.312;2024-03-06T12:24:24;8.13;;;5.53;;
787;SDS011;16074;42.708;23.312;2024-03-06T12:26:58;7.13;;;5.00;;
787;SDS011;16074;42.708;23.312;2024-03-06T12:29:27;7.00;;;4.93;;
787;SDS011;16074;42.708;23.312;2024-03-06T12:31:52;13.68;;;5.75;;
787;SDS011;16074;42.708;23.312;2024-03-06T12:34:18;11.43;;;5.90;;
787;SDS011;16074;42.708;23.312;2024-03-06T12:36:43;7.47;;;4.80;;
787;SDS011;16074;42.708;23.312;2024-03-06T12:39:10;5.80;;;3.92;;
787;SDS011;16074;42.708;23.312;2024-03-06T12:41:40;9.43;;;4.60;;
787;SDS011;16074;42.708;23.312;2024-03-06T12:44:07;7.82;;;5.20;;
787;SDS011;16074;42.708;23.312;2024-03-06T12:46:32;7.53;;;4.60;;
787;SDS011;16074;42.708;23.312;2024-03-06T12:48:57;6.07;;;4.10;;
787;SDS011;16074;42.708;23.312;2024-03-06T12:51:23;7.03;;;4.25;;
787;SDS011;16074;42.708;23.312;2024-03-06T12:53:48;7.00;;;4.10;;
787;SDS011;16074;42.708;23.312;2024-03-06T12:56:14;8.50;;;4.60;;
787;SDS011;16074;42.708;23.312;2024-03-06T12:58:39;7.25;;;4.22;;
787;SDS011;16074;42.708;23.312;2024-03-06T13:01:04;9.40;;;4.87;;
787;SDS011;16074;42.708;23.312;2024-03-06T13:03:30;5.30;;;4.03;;
787;SDS011;16074;42.708;23.312;2024-03-06T13:05:56;6.57;;;3.50;;
787;SDS011;16074;42.708;23.312;2024-03-06T13:08:21;5.95;;;3.35;;
787;SDS011;16074;42.708;23.312;2024-03-06T13:10:47;5.90;;;3.30;;
787;SDS011;16074;42.708;23.312;2024-03-06T13:13:13;6.50;;;3.67;;
787;SDS011;16074;42.708;23.312;2024-03-06T13:15:40;6.03;;;3.78;;
787;SDS011;16074;42.708;23.312;2024-03-06T13:18:05;4.68;;;3.03;;
787;SDS011;16074;42.708;23.312;2024-03-06T13:20:31;4.93;;;2.90;;
787;SDS011;16074;42.708;23.312;2024-03-06T13:22:56;4.07;;;3.10;;
787;SDS011;16074;42.708;23.312;2024-03-06T13:25:21;4.20;;;3.43;;
787;SDS011;16074;42.708;23.312;2024-03-06T13:27:47;5.28;;;3.20;;
787;SDS011;16074;42.708;23.312;2024-03-06T13:30:12;4.87;;;3.53;;
787;SDS011;16074;42.708;23.312;2024-03-06T13:32:37;4.53;;;3.70;;
787;SDS011;16074;42.708;23.312;2024-03-06T13:35:03;4.05;;;3.60;;
787;SDS011;16074;42.708;23.312;2024-03-06T13:37:29;6.72;;;4.05;;
787;SDS011;16074;42.708;23.312;2024-03-06T13:39:54;5.93;;;3.50;;
787;SDS011;16074;42.708;23.312;2024-03-06T13:42:23;5.43;;;3.88;;
787;SDS011;16074;42.708;23.312;2024-03-06T13:44:51;7.47;;;4.07;;
787;SDS011;16074;42.708;23.312;2024-03-06T13:47:16;6.10;;;4.05;;
787;SDS011;16074;42.708;23.312;2024-03-06T13:49:42;4.35;;;3.40;;
787;SDS011;16074;42.708;23.312;2024-03-06T13:52:08;5.50;;;3.90;;
787;SDS011;16074;42.708;23.312;2024-03-06T13:54:35;4.88;;;3.97;;
787;SDS011;16074;42.708;23.312;2024-03-06T13:57:00;5.90;;;3.90;;
787;SDS011;16074;42.708;23.312;2024-03-06T13:59:30;6.03;;;3.38;;
787;SDS011;16074;42.708;23.312;2024-03-06T14:01:55;4.95;;;3.50;;
787;SDS011;16074;42.708;23.312;2024-03-06T14:04:21;5.20;;;3.50;;
787;SDS011;16074;42.708;23.312;2024-03-06T14:06:46;4.47;;;3.67;;
787;SDS011;16074;42.708;23.312;2024-03-06T14:09:12;7.55;;;4.15;;
787;SDS011;16074;42.708;23.312;2024-03-06T14:11:38;4.40;;;3.50;;
787;SDS011;16074;42.708;23.312;2024-03-06T14:14:05;7.97;;;3.90;;
787;SDS011;16074;42.708;23.312;2024-03-06T14:16:30;6.05;;;4.20;;
787;SDS011;16074;42.708;23.312;2024-03-06T14:18:56;7.50;;;3.90;;
787;SDS011;16074;42.708;23.312;2024-03-06T14:21:21;7.82;;;4.30;;
787;SDS011;16074;42.708;23.312;2024-03-06T14:23:46;7.87;;;4.07;;
787;SDS011;16074;42.708;23.312;2024-03-06T14:26:11;8.90;;;4.33;;
787;SDS011;16074;42.708;23.312;2024-03-06T14:28:37;6.97;;;4.00;;
787;SDS011;16074;42.708;23.312;2024-03-06T14:31:03;5.80;;;3.72;;
787;SDS011;16074;42.708;23.312;2024-03-06T14:33:28;8.65;;;4.22;;
787;SDS011;16074;42.708;23.312;2024-03-06T14:35:55;5.82;;;3.60;;
787;SDS011;16074;42.708;23.312;2024-03-06T14:38:20;7.33;;;4.77;;